sensor_id;sensor_type;location;lat;lon;timestamp;pressure;altitude;pressure_sealevel;temperature;humidity
27613;BME280;15036;48.094;-1.690;2023-04-05T00:01:21;101810.66;;;13.70;50.51
27613;BME280;15036;48.094;-1.690;2023-04-05T00:03:50;101814.84;;;13.66;50.71
27613;BME280;15036;48.094;-1.690;2023-04-05T00:06:16;101807.09;;;13.90;49.99
27613;BME280;15036;48.094;-1.690;2023-04-05T00:08:42;101802.88;;;13.52;50.88
27613;BME280;15036;48.094;-1.690;2023-04-05T00:11:15;101805.31;;;13.62;50.56
27613;BME280;15036;48.094;-1.690;2023-04-05T00:13:41;101809.56;;;13.64;50.53
27613;BME280;15036;48.094;-1.690;2023-04-05T00:16:07;101812.00;;;13.59;50.90
27613;BME280;15036;48.094;-1.690;2023-04-05T00:18:32;101814.09;;;13.57;50.81
27613;BME280;15036;48.094;-1.690;2023-04-05T00:20:59;101825.38;;;12.89;52.03
27613;BME280;15036;48.094;-1.690;2023-04-05T00:23:25;101811.72;;;12.15;53.99
27613;BME280;15036;48.094;-1.690;2023-04-05T00:25:51;101813.84;;;12.05;54.26
27613;BME280;15036;48.094;-1.690;2023-04-05T00:28:17;101814.84;;;12.12;53.88
27613;BME280;15036;48.094;-1.690;2023-04-05T00:30:43;101814.19;;;12.62;52.56
27613;BME280;15036;48.094;-1.690;2023-04-05T00:33:08;101817.59;;;12.49;52.86
27613;BME280;15036;48.094;-1.690;2023-04-05T00:35:35;101819.38;;;12.57;52.49
27613;BME280;15036;48.094;-1.690;2023-04-05T00:38:01;101811.31;;;12.41;52.92
27613;BME280;15036;48.094;-1.690;2023-04-05T00:40:26;101814.84;;;12.49;52.47
27613;BME280;15036;48.094;-1.690;2023-04-05T00:42:52;101814.94;;;12.56;52.53
27613;BME280;15036;48.094;-1.690;2023-04-05T00:45:17;101811.84;;;12.59;52.08
27613;BME280;15036;48.094;-1.690;2023-04-05T00:47:43;101804.94;;;12.63;52.11
27613;BME280;15036;48.094;-1.690;2023-04-05T00:50:09;101807.69;;;12.63;52.12
27613;BME280;15036;48.094;-1.690;2023-04-05T00:52:38;101794.72;;;12.57;52.10
27613;BME280;15036;48.094;-1.690;2023-04-05T00:55:07;101794.22;;;12.39;52.89
27613;BME280;15036;48.094;-1.690;2023-04-05T00:57:34;101788.34;;;12.27;53.19
27613;BME280;15036;48.094;-1.690;2023-04-05T01:00:04;101789.66;;;12.54;52.67
27613;BME280;15036;48.094;-1.690;2023-04-05T01:02:48;101782.34;;;12.46;52.69
27613;BME280;15036;48.094;-1.690;2023-04-05T01:08:33;101767.22;;;12.50;52.35
27613;BME280;15036;48.094;-1.690;2023-04-05T01:11:03;101767.16;;;12.44;52.45
27613;BME280;15036;48.094;-1.690;2023-04-05T01:13:29;101771.22;;;12.62;52.23
27613;BME280;15036;48.094;-1.690;2023-04-05T01:15:55;101772.44;;;12.74;52.08
27613;BME280;15036;48.094;-1.690;2023-04-05T01:18:20;101760.44;;;12.90;51.59
27613;BME280;15036;48.094;-1.690;2023-04-05T01:20:53;101770.31;;;12.33;53.10
27613;BME280;15036;48.094;-1.690;2023-04-05T01:23:44;101761.59;;;12.14;53.65
27613;BME280;15036;48.094;-1.690;2023-04-05T01:26:43;101755.50;;;12.27;53.25
27613;BME280;15036;48.094;-1.690;2023-04-05T01:30:04;101756.44;;;12.34;53.21
27613;BME280;15036;48.094;-1.690;2023-04-05T01:35:16;101752.41;;;12.45;52.94
27613;BME280;15036;48.094;-1.690;2023-04-05T01:37:44;101751.63;;;12.36;52.92
27613;BME280;15036;48.094;-1.690;2023-04-05T01:40:10;101749.28;;;12.33;52.96
27613;BME280;15036;48.094;-1.690;2023-04-05T01:42:36;101754.94;;;12.32;53.08
27613;BME280;15036;48.094;-1.690;2023-04-05T01:45:02;101755.09;;;12.30;53.14
27613;BME280;15036;48.094;-1.690;2023-04-05T01:47:27;101747.19;;;12.35;53.05
27613;BME280;15036;48.094;-1.690;2023-04-05T01:49:53;101753.16;;;12.39;52.90
27613;BME280;15036;48.094;-1.690;2023-04-05T01:52:18;101747.09;;;12.29;53.06
27613;BME280;15036;48.094;-1.690;2023-04-05T01:54:44;101739.69;;;12.14;53.51
27613;BME280;15036;48.094;-1.690;2023-04-05T01:57:09;101740.00;;;12.34;52.72
27613;BME280;15036;48.094;-1.690;2023-04-05T01:59:35;101736.22;;;12.20;52.70
27613;BME280;15036;48.094;-1.690;2023-04-05T02:02:00;101722.59;;;12.12;52.92
27613;BME280;15036;48.094;-1.690;2023-04-05T02:04:25;101730.81;;;12.12;52.93
27613;BME280;15036;48.094;-1.690;2023-04-05T02:06:51;101723.84;;;12.10;52.99
27613;BME280;15036;48.094;-1.690;2023-04-05T02:09:16;101724.00;;;12.08;52.84
27613;BME280;15036;48.094;-1.690;2023-04-05T02:11:41;101730.72;;;12.06;52.60
27613;BME280;15036;48.094;-1.690;2023-04-05T02:14:07;101725.78;;;12.01;52.61
27613;BME280;15036;48.094;-1.690;2023-04-05T02:16:34;101719.66;;;11.99;52.51
27613;BME280;15036;48.094;-1.690;2023-04-05T02:19:00;101722.59;;;11.98;52.51
27613;BME280;15036;48.094;-1.690;2023-04-05T02:21:25;101722.75;;;11.96;52.46
27613;BME280;15036;48.094;-1.690;2023-04-05T02:23:51;101722.94;;;11.95;52.56
27613;BME280;15036;48.094;-1.690;2023-04-05T02:26:17;101725.72;;;11.87;52.61
27613;BME280;15036;48.094;-1.690;2023-04-05T02:28:42;101733.66;;;11.82;52.60
27613;BME280;15036;48.094;-1.690;2023-04-05T02:31:11;101727.72;;;11.78;52.63
27613;BME280;15036;48.094;-1.690;2023-04-05T02:33:38;101719.59;;;11.85;52.47
27613;BME280;15036;48.094;-1.690;2023-04-05T02:36:06;101723.66;;;11.89;52.91
27613;BME280;15036;48.094;-1.690;2023-04-05T02:38:32;101717.66;;;11.71;53.02
27613;BME280;15036;48.094;-1.690;2023-04-05T02:40:58;101713.66;;;11.59;53.42
27613;BME280;15036;48.094;-1.690;2023-04-05T02:43:23;101713.69;;;11.51;53.85
27613;BME280;15036;48.094;-1.690;2023-04-05T02:45:50;101715.72;;;11.57;53.81
27613;BME280;15036;48.094;-1.690;2023-04-05T02:48:15;101714.91;;;11.48;54.03
27613;BME280;15036;48.094;-1.690;2023-04-05T02:50:40;101709.97;;;11.21;54.83
27613;BME280;15036;48.094;-1.690;2023-04-05T02:53:06;101713.56;;;11.44;53.78
27613;BME280;15036;48.094;-1.690;2023-04-05T02:55:31;101708.09;;;11.44;53.90
27613;BME280;15036;48.094;-1.690;2023-04-05T02:57:59;101707.06;;;11.45;53.83
27613;BME280;15036;48.094;-1.690;2023-04-05T03:00:25;101705.56;;;11.43;53.56
27613;BME280;15036;48.094;-1.690;2023-04-05T03:02:52;101696.88;;;11.31;53.82
27613;BME280;15036;48.094;-1.690;2023-04-05T03:05:17;101697.50;;;11.41;53.52
27613;BME280;15036;48.094;-1.690;2023-04-05T03:07:43;101695.16;;;11.38;53.30
27613;BME280;15036;48.094;-1.690;2023-04-05T03:10:08;101696.63;;;11.49;52.71
27613;BME280;15036;48.094;-1.690;2023-04-05T03:12:34;101690.41;;;11.32;52.92
27613;BME280;15036;48.094;-1.690;2023-04-05T03:14:59;101695.53;;;11.27;53.02
27613;BME280;15036;48.094;-1.690;2023-04-05T03:17:24;101690.28;;;11.25;52.82
27613;BME280;15036;48.094;-1.690;2023-04-05T03:19:50;101695.44;;;11.20;53.14
27613;BME280;15036;48.094;-1.690;2023-04-05T03:22:15;101693.91;;;11.18;52.94
27613;BME280;15036;48.094;-1.690;2023-04-05T03:24:41;101694.97;;;11.17;53.55
27613;BME280;15036;48.094;-1.690;2023-04-05T03:27:06;101690.16;;;11.19;53.42
27613;BME280;15036;48.094;-1.690;2023-04-05T03:29:32;101687.59;;;11.17;53.58
27613;BME280;15036;48.094;-1.690;2023-04-05T03:31:57;101686.09;;;11.15;53.42
27613;BME280;15036;48.094;-1.690;2023-04-05T03:34:23;101682.34;;;11.08;53.42
27613;BME280;15036;48.094;-1.690;2023-04-05T03:36:53;101681.81;;;11.12;53.24
27613;BME280;15036;48.094;-1.690;2023-04-05T03:39:19;101676.69;;;11.09;53.18
27613;BME280;15036;48.094;-1.690;2023-04-05T03:41:44;101682.69;;;11.13;52.88
27613;BME280;15036;48.094;-1.690;2023-04-05T03:44:09;101679.47;;;11.01;52.90
27613;BME280;15036;48.094;-1.690;2023-04-05T03:46:35;101673.53;;;10.98;53.17
27613;BME280;15036;48.094;-1.690;2023-04-05T03:49:02;101680.88;;;10.97;53.17
27613;BME280;15036;48.094;-1.690;2023-04-05T03:51:28;101674.38;;;10.98;53.23
27613;BME280;15036;48.094;-1.690;2023-04-05T03:53:53;101671.81;;;11.05;52.85
27613;BME280;15036;48.094;-1.690;2023-04-05T03:56:19;101674.88;;;11.02;53.05
27613;BME280;15036;48.094;-1.690;2023-04-05T03:58:45;101675.59;;;10.96;53.05
27613;BME280;15036;48.094;-1.690;2023-04-05T04:01:11;101684.19;;;10.85;53.35
27613;BME280;15036;48.094;-1.690;2023-04-05T04:03:36;101683.81;;;10.88;53.50
27613;BME280;15036;48.094;-1.690;2023-04-05T04:06:03;101675.84;;;10.78;53.64
27613;BME280;15036;48.094;-1.690;2023-04-05T04:08:29;101672.91;;;10.88;53.25
27613;BME280;15036;48.094;-1.690;2023-04-05T04:10:54;101683.00;;;10.87;53.05
27613;BME280;15036;48.094;-1.690;2023-04-05T04:13:20;101683.34;;;10.84;53.28
27613;BME280;15036;48.094;-1.690;2023-04-05T04:15:45;101685.88;;;10.86;53.39
27613;BME280;15036;48.094;-1.690;2023-04-05T04:18:11;101691.00;;;10.89;53.62
27613;BME280;15036;48.094;-1.690;2023-04-05T04:20:39;101690.81;;;10.90;53.74
27613;BME280;15036;48.094;-1.690;2023-04-05T04:23:05;101689.06;;;10.97;53.52
27613;BME280;15036;48.094;-1.690;2023-04-05T04:25:37;101689.03;;;11.05;53.64
27613;BME280;15036;48.094;-1.690;2023-04-05T04:28:04;101683.22;;;11.08;53.60
27613;BME280;15036;48.094;-1.690;2023-04-05T04:30:33;101690.88;;;11.13;53.70
27613;BME280;15036;48.094;-1.690;2023-04-05T04:33:00;101679.94;;;11.13;53.54
27613;BME280;15036;48.094;-1.690;2023-04-05T04:35:28;101685.03;;;11.16;53.47
27613;BME280;15036;48.094;-1.690;2023-04-05T04:40:31;101689.50;;;11.17;53.59
27613;BME280;15036;48.094;-1.690;2023-04-05T04:43:09;101689.59;;;11.23;53.26
27613;BME280;15036;48.094;-1.690;2023-04-05T04:45:39;101681.25;;;11.25;53.37
27613;BME280;15036;48.094;-1.690;2023-04-05T04:48:04;101674.91;;;11.24;53.39
27613;BME280;15036;48.094;-1.690;2023-04-05T04:50:30;101677.84;;;11.23;53.37
27613;BME280;15036;48.094;-1.690;2023-04-05T04:52:57;101678.50;;;11.25;53.39
27613;BME280;15036;48.094;-1.690;2023-04-05T04:55:24;101679.34;;;11.25;53.34
27613;BME280;15036;48.094;-1.690;2023-04-05T04:57:54;101676.75;;;11.32;53.37
27613;BME280;15036;48.094;-1.690;2023-04-05T05:00:21;101681.16;;;11.33;53.36
27613;BME280;15036;48.094;-1.690;2023-04-05T05:02:47;101684.22;;;11.38;53.14
27613;BME280;15036;48.094;-1.690;2023-04-05T05:05:13;101685.28;;;11.29;53.33
27613;BME280;15036;48.094;-1.690;2023-04-05T05:07:39;101684.06;;;11.31;53.44
27613;BME280;15036;48.094;-1.690;2023-04-05T05:10:11;101684.28;;;11.30;53.61
27613;BME280;15036;48.094;-1.690;2023-04-05T05:12:40;101683.22;;;11.31;53.57
27613;BME280;15036;48.094;-1.690;2023-04-05T05:15:06;101677.94;;;11.29;53.51
27613;BME280;15036;48.094;-1.690;2023-04-05T05:17:31;101684.56;;;11.35;53.44
27613;BME280;15036;48.094;-1.690;2023-04-05T05:19:58;101689.25;;;11.26;53.58
27613;BME280;15036;48.094;-1.690;2023-04-05T05:22:37;101686.72;;;11.25;53.50
27613;BME280;15036;48.094;-1.690;2023-04-05T05:25:04;101686.63;;;11.33;53.55
27613;BME280;15036;48.094;-1.690;2023-04-05T05:27:29;101684.63;;;11.27;53.70
27613;BME280;15036;48.094;-1.690;2023-04-05T05:29:55;101683.88;;;11.33;53.47
27613;BME280;15036;48.094;-1.690;2023-04-05T05:32:20;101692.41;;;11.38;53.37
27613;BME280;15036;48.094;-1.690;2023-04-05T05:34:47;101691.94;;;11.34;53.38
27613;BME280;15036;48.094;-1.690;2023-04-05T05:37:12;101696.69;;;11.41;53.28
27613;BME280;15036;48.094;-1.690;2023-04-05T05:39:38;101689.88;;;11.37;53.40
27613;BME280;15036;48.094;-1.690;2023-04-05T05:42:03;101700.09;;;11.43;53.12
27613;BME280;15036;48.094;-1.690;2023-04-05T05:44:29;101697.41;;;11.34;53.24
27613;BME280;15036;48.094;-1.690;2023-04-05T05:46:56;101693.44;;;11.37;52.97
27613;BME280;15036;48.094;-1.690;2023-04-05T05:49:22;101694.00;;;11.32;53.06
27613;BME280;15036;48.094;-1.690;2023-04-05T05:51:49;101694.00;;;11.32;53.33
27613;BME280;15036;48.094;-1.690;2023-04-05T05:54:15;101696.34;;;11.35;52.98
27613;BME280;15036;48.094;-1.690;2023-04-05T05:56:40;101693.63;;;11.35;53.01
27613;BME280;15036;48.094;-1.690;2023-04-05T05:59:06;101702.00;;;11.34;52.94
27613;BME280;15036;48.094;-1.690;2023-04-05T06:01:32;101706.47;;;11.27;53.38
27613;BME280;15036;48.094;-1.690;2023-04-05T06:03:59;101697.94;;;11.30;53.42
27613;BME280;15036;48.094;-1.690;2023-04-05T06:06:24;101694.09;;;11.16;53.64
27613;BME280;15036;48.094;-1.690;2023-04-05T06:08:50;101690.03;;;11.35;53.23
27613;BME280;15036;48.094;-1.690;2023-04-05T06:11:19;101698.56;;;11.40;53.40
27613;BME280;15036;48.094;-1.690;2023-04-05T06:13:47;101703.69;;;11.35;53.34
27613;BME280;15036;48.094;-1.690;2023-04-05T06:16:12;101707.25;;;11.44;53.17
27613;BME280;15036;48.094;-1.690;2023-04-05T06:18:38;101707.50;;;11.57;52.78
27613;BME280;15036;48.094;-1.690;2023-04-05T06:21:03;101710.69;;;11.68;52.61
27613;BME280;15036;48.094;-1.690;2023-04-05T06:23:29;101708.97;;;11.67;52.82
27613;BME280;15036;48.094;-1.690;2023-04-05T06:25:55;101706.56;;;11.72;52.57
27613;BME280;15036;48.094;-1.690;2023-04-05T06:28:21;101707.56;;;11.71;52.71
27613;BME280;15036;48.094;-1.690;2023-04-05T06:30:46;101704.97;;;11.78;52.74
27613;BME280;15036;48.094;-1.690;2023-04-05T06:33:12;101703.38;;;11.83;52.76
27613;BME280;15036;48.094;-1.690;2023-04-05T06:35:37;101700.31;;;12.01;52.36
27613;BME280;15036;48.094;-1.690;2023-04-05T06:38:02;101707.00;;;11.98;52.49
27613;BME280;15036;48.094;-1.690;2023-04-05T06:40:28;101703.03;;;12.01;52.64
27613;BME280;15036;48.094;-1.690;2023-04-05T06:42:53;101698.34;;;12.09;52.06
27613;BME280;15036;48.094;-1.690;2023-04-05T06:45:19;101706.69;;;12.16;51.90
27613;BME280;15036;48.094;-1.690;2023-04-05T06:47:44;101701.94;;;12.10;52.04
27613;BME280;15036;48.094;-1.690;2023-04-05T06:50:10;101702.25;;;12.30;51.58
27613;BME280;15036;48.094;-1.690;2023-04-05T06:52:37;101702.91;;;12.32;51.60
27613;BME280;15036;48.094;-1.690;2023-04-05T06:55:03;101698.78;;;12.36;51.69
27613;BME280;15036;48.094;-1.690;2023-04-05T06:57:29;101700.19;;;12.32;51.73
27613;BME280;15036;48.094;-1.690;2023-04-05T06:59:54;101703.84;;;12.39;51.71
27613;BME280;15036;48.094;-1.690;2023-04-05T07:02:20;101698.09;;;12.48;51.24
27613;BME280;15036;48.094;-1.690;2023-04-05T07:04:45;101701.13;;;12.68;51.11
27613;BME280;15036;48.094;-1.690;2023-04-05T07:07:11;101701.78;;;12.70;51.32
27613;BME280;15036;48.094;-1.690;2023-04-05T07:09:38;101692.13;;;12.74;51.36
27613;BME280;15036;48.094;-1.690;2023-04-05T07:12:04;101695.06;;;12.87;51.42
27613;BME280;15036;48.094;-1.690;2023-04-05T07:14:31;101694.09;;;12.94;51.30
27613;BME280;15036;48.094;-1.690;2023-04-05T07:16:57;101696.00;;;12.94;50.85
27613;BME280;15036;48.094;-1.690;2023-04-05T07:19:22;101683.72;;;13.04;50.66
27613;BME280;15036;48.094;-1.690;2023-04-05T07:21:48;101687.66;;;13.17;50.51
27613;BME280;15036;48.094;-1.690;2023-04-05T07:24:13;101697.81;;;13.37;49.90
27613;BME280;15036;48.094;-1.690;2023-04-05T07:26:40;101691.53;;;13.43;50.06
27613;BME280;15036;48.094;-1.690;2023-04-05T07:29:06;101689.28;;;13.47;50.01
27613;BME280;15036;48.094;-1.690;2023-04-05T07:31:33;101693.34;;;13.51;49.83
27613;BME280;15036;48.094;-1.690;2023-04-05T07:33:59;101693.25;;;13.65;49.00
27613;BME280;15036;48.094;-1.690;2023-04-05T07:36:26;101691.69;;;13.77;48.76
27613;BME280;15036;48.094;-1.690;2023-04-05T07:38:53;101699.78;;;13.85;48.29
27613;BME280;15036;48.094;-1.690;2023-04-05T07:41:18;101691.78;;;13.90;48.49
27613;BME280;15036;48.094;-1.690;2023-04-05T07:43:45;101691.63;;;13.92;48.65
27613;BME280;15036;48.094;-1.690;2023-04-05T07:46:10;101688.75;;;14.07;48.29
27613;BME280;15036;48.094;-1.690;2023-04-05T07:48:36;101694.16;;;14.21;48.30
27613;BME280;15036;48.094;-1.690;2023-04-05T07:51:02;101693.09;;;14.22;48.25
27613;BME280;15036;48.094;-1.690;2023-04-05T07:53:29;101695.13;;;14.35;47.92
27613;BME280;15036;48.094;-1.690;2023-04-05T07:55:55;101689.53;;;14.49;47.09
27613;BME280;15036;48.094;-1.690;2023-04-05T07:58:21;101692.09;;;14.51;47.34
27613;BME280;15036;48.094;-1.690;2023-04-05T08:00:47;101698.63;;;14.50;47.32
27613;BME280;15036;48.094;-1.690;2023-04-05T08:03:13;101686.81;;;14.56;46.99
27613;BME280;15036;48.094;-1.690;2023-04-05T08:05:38;101682.28;;;14.69;46.53
27613;BME280;15036;48.094;-1.690;2023-04-05T08:08:04;101677.00;;;14.74;46.28
27613;BME280;15036;48.094;-1.690;2023-04-05T08:10:29;101688.25;;;14.86;45.87
27613;BME280;15036;48.094;-1.690;2023-04-05T08:12:54;101682.97;;;14.85;45.81
27613;BME280;15036;48.094;-1.690;2023-04-05T08:15:20;101689.66;;;15.16;45.36
27613;BME280;15036;48.094;-1.690;2023-04-05T08:17:45;101689.28;;;15.32;45.35
27613;BME280;15036;48.094;-1.690;2023-04-05T08:20:11;101685.91;;;15.30;45.78
27613;BME280;15036;48.094;-1.690;2023-04-05T08:22:36;101684.91;;;15.51;45.40
27613;BME280;15036;48.094;-1.690;2023-04-05T08:25:02;101676.66;;;15.51;44.88
27613;BME280;15036;48.094;-1.690;2023-04-05T08:27:27;101680.50;;;15.70;44.77
27613;BME280;15036;48.094;-1.690;2023-04-05T08:29:52;101677.56;;;15.84;44.54
27613;BME280;15036;48.094;-1.690;2023-04-05T08:32:18;101672.91;;;16.04;44.03
27613;BME280;15036;48.094;-1.690;2023-04-05T08:34:43;101673.28;;;16.14;43.72
27613;BME280;15036;48.094;-1.690;2023-04-05T08:37:09;101684.31;;;16.27;43.24
27613;BME280;15036;48.094;-1.690;2023-04-05T08:39:34;101681.34;;;16.35;42.68
27613;BME280;15036;48.094;-1.690;2023-04-05T08:42:10;101674.56;;;16.25;42.89
27613;BME280;15036;48.094;-1.690;2023-04-05T08:44:37;101676.06;;;16.14;43.06
27613;BME280;15036;48.094;-1.690;2023-04-05T08:47:04;101671.59;;;16.33;42.52
27613;BME280;15036;48.094;-1.690;2023-04-05T08:49:29;101681.34;;;16.22;42.73
27613;BME280;15036;48.094;-1.690;2023-04-05T08:51:55;101682.19;;;16.49;42.47
27613;BME280;15036;48.094;-1.690;2023-04-05T08:54:22;101680.50;;;16.55;42.04
27613;BME280;15036;48.094;-1.690;2023-04-05T08:56:48;101682.84;;;16.51;41.94
27613;BME280;15036;48.094;-1.690;2023-04-05T08:59:38;101683.88;;;16.63;42.04
27613;BME280;15036;48.094;-1.690;2023-04-05T09:02:13;101671.75;;;16.64;42.00
27613;BME280;15036;48.094;-1.690;2023-04-05T09:04:42;101679.84;;;16.59;42.02
27613;BME280;15036;48.094;-1.690;2023-04-05T09:07:12;101678.34;;;16.63;42.02
27613;BME280;15036;48.094;-1.690;2023-04-05T09:09:38;101677.44;;;16.76;41.94
27613;BME280;15036;48.094;-1.690;2023-04-05T09:12:07;101675.19;;;16.27;41.47
27613;BME280;15036;48.094;-1.690;2023-04-05T09:14:33;101672.84;;;16.50;40.99
27613;BME280;15036;48.094;-1.690;2023-04-05T09:17:01;101669.47;;;16.55;41.35
27613;BME280;15036;48.094;-1.690;2023-04-05T09:19:27;101676.00;;;16.73;41.27
27613;BME280;15036;48.094;-1.690;2023-04-05T09:24:41;101675.53;;;16.83;40.99
27613;BME280;15036;48.094;-1.690;2023-04-05T09:27:07;101673.88;;;16.62;40.28
27613;BME280;15036;48.094;-1.690;2023-04-05T09:29:35;101673.81;;;16.82;40.67
27613;BME280;15036;48.094;-1.690;2023-04-05T09:32:01;101661.19;;;17.12;40.24
27613;BME280;15036;48.094;-1.690;2023-04-05T09:34:29;101663.22;;;16.85;40.06
27613;BME280;15036;48.094;-1.690;2023-04-05T09:36:55;101662.91;;;17.13;40.07
27613;BME280;15036;48.094;-1.690;2023-04-05T09:39:29;101661.66;;;17.02;39.16
27613;BME280;15036;48.094;-1.690;2023-04-05T09:42:15;101658.19;;;17.13;38.86
27613;BME280;15036;48.094;-1.690;2023-04-05T09:44:57;101657.00;;;17.03;39.26
27613;BME280;15036;48.094;-1.690;2023-04-05T09:47:29;101663.47;;;16.77;39.65
27613;BME280;15036;48.094;-1.690;2023-04-05T09:50:02;101659.41;;;17.24;39.18
27613;BME280;15036;48.094;-1.690;2023-04-05T09:52:31;101649.78;;;17.40;39.07
27613;BME280;15036;48.094;-1.690;2023-04-05T09:55:02;101659.28;;;17.57;38.60
27613;BME280;15036;48.094;-1.690;2023-04-05T09:57:28;101654.50;;;17.70;38.58
27613;BME280;15036;48.094;-1.690;2023-04-05T09:59:57;101658.72;;;18.22;37.96
27613;BME280;15036;48.094;-1.690;2023-04-05T10:02:23;101653.50;;;18.14;37.72
27613;BME280;15036;48.094;-1.690;2023-04-05T10:04:49;101649.72;;;18.51;37.50
27613;BME280;15036;48.094;-1.690;2023-04-05T10:07:17;101641.81;;;18.55;36.83
27613;BME280;15036;48.094;-1.690;2023-04-05T10:09:44;101641.75;;;18.61;36.26
27613;BME280;15036;48.094;-1.690;2023-04-05T10:12:23;101646.97;;;18.87;36.05
27613;BME280;15036;48.094;-1.690;2023-04-05T10:14:49;101642.81;;;18.60;35.85
27613;BME280;15036;48.094;-1.690;2023-04-05T10:17:31;101656.25;;;18.57;35.22
27613;BME280;15036;48.094;-1.690;2023-04-05T10:22:40;101641.88;;;18.48;34.83
27613;BME280;15036;48.094;-1.690;2023-04-05T10:27:53;101643.28;;;18.57;35.49
27613;BME280;15036;48.094;-1.690;2023-04-05T10:30:23;101639.75;;;18.86;35.03
27613;BME280;15036;48.094;-1.690;2023-04-05T10:35:45;101635.41;;;19.09;34.95
27613;BME280;15036;48.094;-1.690;2023-04-05T10:38:26;101640.25;;;19.13;35.16
27613;BME280;15036;48.094;-1.690;2023-04-05T10:41:13;101644.13;;;19.42;34.78
27613;BME280;15036;48.094;-1.690;2023-04-05T10:43:39;101635.94;;;20.00;34.05
27613;BME280;15036;48.094;-1.690;2023-04-05T10:46:06;101631.84;;;20.02;33.94
27613;BME280;15036;48.094;-1.690;2023-04-05T10:48:57;101639.06;;;20.15;33.78
27613;BME280;15036;48.094;-1.690;2023-04-05T10:51:24;101638.53;;;20.36;33.47
27613;BME280;15036;48.094;-1.690;2023-04-05T10:53:51;101643.59;;;19.63;33.61
27613;BME280;15036;48.094;-1.690;2023-04-05T10:56:17;101639.13;;;20.49;33.39
27613;BME280;15036;48.094;-1.690;2023-04-05T10:59:00;101645.25;;;20.28;33.20
27613;BME280;15036;48.094;-1.690;2023-04-05T11:01:26;101643.78;;;20.60;33.47
27613;BME280;15036;48.094;-1.690;2023-04-05T11:03:52;101640.44;;;20.98;32.89
27613;BME280;15036;48.094;-1.690;2023-04-05T11:08:58;101645.50;;;20.50;32.25
27613;BME280;15036;48.094;-1.690;2023-04-05T11:11:23;101641.81;;;20.84;31.27
27613;BME280;15036;48.094;-1.690;2023-04-05T11:13:51;101640.63;;;20.92;31.08
27613;BME280;15036;48.094;-1.690;2023-04-05T11:16:17;101637.25;;;20.09;31.59
27613;BME280;15036;48.094;-1.690;2023-04-05T11:18:50;101636.44;;;20.54;31.54
27613;BME280;15036;48.094;-1.690;2023-04-05T11:26:32;101630.28;;;20.52;31.67
27613;BME280;15036;48.094;-1.690;2023-04-05T11:28:58;101641.44;;;20.92;30.93
27613;BME280;15036;48.094;-1.690;2023-04-05T11:31:23;101638.69;;;20.81;31.34
27613;BME280;15036;48.094;-1.690;2023-04-05T11:33:56;101628.56;;;21.26;30.53
27613;BME280;15036;48.094;-1.690;2023-04-05T11:36:49;101631.16;;;21.77;30.20
27613;BME280;15036;48.094;-1.690;2023-04-05T11:44:18;101625.81;;;21.14;30.67
27613;BME280;15036;48.094;-1.690;2023-04-05T11:46:49;101627.47;;;21.27;30.23
27613;BME280;15036;48.094;-1.690;2023-04-05T11:49:14;101628.31;;;20.88;30.77
27613;BME280;15036;48.094;-1.690;2023-04-05T11:51:40;101620.41;;;21.36;30.28
27613;BME280;15036;48.094;-1.690;2023-04-05T11:54:14;101627.00;;;22.08;29.24
27613;BME280;15036;48.094;-1.690;2023-04-05T11:56:39;101621.88;;;22.16;29.23
27613;BME280;15036;48.094;-1.690;2023-04-05T11:59:06;101621.66;;;22.39;29.10
27613;BME280;15036;48.094;-1.690;2023-04-05T12:01:31;101620.28;;;20.05;29.57
27613;BME280;15036;48.094;-1.690;2023-04-05T12:03:57;101614.38;;;20.36;30.65
27613;BME280;15036;48.094;-1.690;2023-04-05T12:06:24;101615.31;;;21.44;29.55
27613;BME280;15036;48.094;-1.690;2023-04-05T12:08:49;101610.25;;;21.86;29.44
27613;BME280;15036;48.094;-1.690;2023-04-05T12:11:28;101602.53;;;22.26;29.07
27613;BME280;15036;48.094;-1.690;2023-04-05T12:13:59;101602.25;;;22.06;29.02
27613;BME280;15036;48.094;-1.690;2023-04-05T12:16:26;101595.00;;;20.88;30.26
27613;BME280;15036;48.094;-1.690;2023-04-05T12:19:00;101588.03;;;20.73;30.85
27613;BME280;15036;48.094;-1.690;2023-04-05T12:21:26;101596.53;;;20.32;30.87
27613;BME280;15036;48.094;-1.690;2023-04-05T12:23:54;101584.22;;;21.03;30.57
27613;BME280;15036;48.094;-1.690;2023-04-05T12:26:20;101590.06;;;21.18;30.26
27613;BME280;15036;48.094;-1.690;2023-04-05T12:28:58;101580.53;;;21.75;28.77
27613;BME280;15036;48.094;-1.690;2023-04-05T12:31:43;101575.13;;;22.57;28.04
27613;BME280;15036;48.094;-1.690;2023-04-05T12:34:10;101573.31;;;22.84;27.62
27613;BME280;15036;48.094;-1.690;2023-04-05T12:36:35;101572.31;;;21.97;28.51
27613;BME280;15036;48.094;-1.690;2023-04-05T12:39:06;101574.09;;;21.25;29.95
27613;BME280;15036;48.094;-1.690;2023-04-05T12:41:32;101568.97;;;22.33;28.41
27613;BME280;15036;48.094;-1.690;2023-04-05T12:43:58;101567.22;;;22.49;29.20
27613;BME280;15036;48.094;-1.690;2023-04-05T12:46:38;101566.91;;;22.07;30.04
27613;BME280;15036;48.094;-1.690;2023-04-05T12:49:17;101563.13;;;22.56;29.21
27613;BME280;15036;48.094;-1.690;2023-04-05T12:51:46;101565.47;;;21.71;30.08
27613;BME280;15036;48.094;-1.690;2023-04-05T12:54:22;101570.19;;;21.09;31.11
27613;BME280;15036;48.094;-1.690;2023-04-05T12:56:54;101565.75;;;21.86;30.82
27613;BME280;15036;48.094;-1.690;2023-04-05T12:59:22;101565.56;;;22.48;29.75
27613;BME280;15036;48.094;-1.690;2023-04-05T13:01:47;101570.81;;;23.36;28.93
27613;BME280;15036;48.094;-1.690;2023-04-05T13:04:13;101557.59;;;23.84;28.25
27613;BME280;15036;48.094;-1.690;2023-04-05T13:06:38;101564.09;;;24.32;27.29
27613;BME280;15036;48.094;-1.690;2023-04-05T13:09:04;101554.47;;;24.64;26.93
27613;BME280;15036;48.094;-1.690;2023-04-05T13:11:29;101552.81;;;24.68;26.91
27613;BME280;15036;48.094;-1.690;2023-04-05T13:13:55;101560.59;;;23.73;27.93
27613;BME280;15036;48.094;-1.690;2023-04-05T13:16:20;101559.41;;;24.42;27.02